Oak Grove, Minnesota
Current Conditions -  °F | °C
As of 12:45 PM on Saturday 25 Oct 2014 (Local Time) from KANE Reporting Station
Few Clouds Few Clouds  
Wind Chill: 63°   Ceiling: Unl
Heat Index: 63°   Visibility: 10mi
Dew Point: 30°   Wind: 17mph
Humidity: 30%   Direction: 280°W
Pressure: 30.04"   Gusts: 23mph
Location:  45.2924°N, 93.4325°W
Report Text: KANE 251745Z 28015G20KT 10SM FEW150 17/M01 A3004
Loading
Personal Weather Stations






























Interactive Weather Map
Tropical Storm Tracking
New forecast layout! Learn more

10-Day Weather Forecast

Advertisements
Track Severe Weather on mobile